createdAt,value
2023-01-23T00:01:33.441Z,27.05
2023-01-23T00:04:01.068Z,28.48
2023-01-23T00:06:28.716Z,28.15
2023-01-23T00:08:56.979Z,27.70
2023-01-23T00:11:28.613Z,28.40
2023-01-23T00:13:57.377Z,27.48
2023-01-23T00:16:26.849Z,28.05
2023-01-23T00:18:54.362Z,28.40
2023-01-23T00:21:24.258Z,26.05
2023-01-23T00:23:56.253Z,25.83
2023-01-23T00:26:25.834Z,27.70
2023-01-23T00:28:54.683Z,27.73
2023-01-23T00:31:25.374Z,28.33
2023-01-23T00:33:58.460Z,27.13
2023-01-23T00:36:31.352Z,28.38
2023-01-23T00:38:58.716Z,29.38
2023-01-23T00:41:26.115Z,28.33
2023-01-23T00:43:56.278Z,28.23
2023-01-23T00:46:23.670Z,26.95
2023-01-23T00:48:51.527Z,27.92
2023-01-23T00:51:18.978Z,27.48
2023-01-23T00:53:49.915Z,29.35
2023-01-23T00:56:17.063Z,28.92
2023-01-23T00:58:45.347Z,28.52
2023-01-23T01:01:14.451Z,28.95
2023-01-23T01:03:42.272Z,28.48
2023-01-23T01:06:10.634Z,27.75
2023-01-23T01:08:40.216Z,29.17
2023-01-23T01:11:07.833Z,29.98
2023-01-23T01:13:37.804Z,29.38
2023-01-23T01:16:08.217Z,31.27
2023-01-23T01:18:36.622Z,28.45
2023-01-23T01:21:14.420Z,28.67
2023-01-23T01:23:42.013Z,29.50
2023-01-23T01:26:09.716Z,30.75
2023-01-23T01:28:39.419Z,28.15
2023-01-23T01:31:17.076Z,31.17
2023-01-23T01:33:45.253Z,29.63
2023-01-23T01:36:14.980Z,30.75
2023-01-23T01:38:42.697Z,32.78
2023-01-23T01:41:12.251Z,31.73
2023-01-23T01:43:39.608Z,30.77
2023-01-23T01:46:20.609Z,31.45
2023-01-23T01:48:57.126Z,31.45
2023-01-23T01:51:34.440Z,30.65
2023-01-23T01:54:10.698Z,31.60
2023-01-23T01:56:43.293Z,31.35
2023-01-23T01:59:12.187Z,30.77
2023-01-23T02:01:41.612Z,32.55
2023-01-23T02:04:09.753Z,32.25
2023-01-23T02:06:36.928Z,31.20
2023-01-23T02:09:12.908Z,30.80
2023-01-23T02:11:40.075Z,31.23
2023-01-23T02:14:07.681Z,31.50
2023-01-23T02:16:41.076Z,31.67
2023-01-23T02:19:27.603Z,30.33
2023-01-23T02:22:06.373Z,30.83
2023-01-23T02:24:43.098Z,30.23
2023-01-23T02:27:12.451Z,31.48
2023-01-23T02:29:42.179Z,30.48
2023-01-23T02:32:10.435Z,28.80
2023-01-23T02:34:38.849Z,30.77
2023-01-23T02:37:09.299Z,31.42
2023-01-23T02:39:37.542Z,29.80
2023-01-23T02:42:07.611Z,30.20
2023-01-23T02:44:53.936Z,29.27
2023-01-23T02:47:24.537Z,30.10
2023-01-23T02:49:52.189Z,31.15
2023-01-23T02:52:19.451Z,29.30
2023-01-23T02:54:47.622Z,30.10
2023-01-23T02:57:15.656Z,27.88
2023-01-23T03:00:01.499Z,29.48
2023-01-23T03:02:30.066Z,29.33
2023-01-23T03:04:57.354Z,27.90
2023-01-23T03:07:29.897Z,29.13
2023-01-23T03:09:57.319Z,27.70
2023-01-23T03:12:24.355Z,27.55
2023-01-23T03:14:56.535Z,27.08
2023-01-23T03:17:24.153Z,28.00
2023-01-23T03:19:52.865Z,27.48
2023-01-23T03:22:20.141Z,27.17
2023-01-23T03:24:47.599Z,26.70
2023-01-23T03:27:14.909Z,26.92
2023-01-23T03:30:05.749Z,26.52
2023-01-23T03:32:32.975Z,28.08
2023-01-23T03:35:00.471Z,27.70
2023-01-23T03:37:30.341Z,28.02
2023-01-23T03:40:16.931Z,27.77
2023-01-23T03:42:44.015Z,27.27
2023-01-23T03:45:14.683Z,27.58
2023-01-23T03:47:42.746Z,25.95
2023-01-23T03:50:10.301Z,27.10
2023-01-23T03:52:39.613Z,26.67
2023-01-23T03:55:07.959Z,28.02
2023-01-23T03:57:38.697Z,28.40
2023-01-23T04:00:16.947Z,27.05
2023-01-23T04:02:50.517Z,26.83
2023-01-23T04:05:19.079Z,28.50
2023-01-23T04:07:46.187Z,28.52
2023-01-23T04:10:17.012Z,31.05
2023-01-23T04:12:49.008Z,29.00
2023-01-23T04:15:16.583Z,28.38
2023-01-23T04:17:44.457Z,27.17
2023-01-23T04:20:13.645Z,27.95
2023-01-23T04:22:42.628Z,28.13
2023-01-23T04:25:10.382Z,26.35
2023-01-23T04:27:37.555Z,26.83
2023-01-23T04:30:06.307Z,24.38
2023-01-23T04:32:35.133Z,23.85
2023-01-23T04:35:03.233Z,24.15
2023-01-23T04:37:31.088Z,24.88
2023-01-23T04:39:59.583Z,26.02
2023-01-23T04:42:28.878Z,23.95
2023-01-23T04:45:04.287Z,23.98
2023-01-23T04:47:34.342Z,22.88
2023-01-23T04:50:05.010Z,23.67
2023-01-23T04:52:35.400Z,26.10
2023-01-23T04:55:06.759Z,23.98
2023-01-23T04:57:34.050Z,24.48
2023-01-23T05:00:13.714Z,24.10
2023-01-23T05:02:40.980Z,23.98
2023-01-23T05:05:09.225Z,23.33
2023-01-23T05:07:40.261Z,22.95
2023-01-23T05:10:10.921Z,23.17
2023-01-23T05:16:09.278Z,24.27
2023-01-23T05:18:56.757Z,24.98
2023-01-23T05:21:26.716Z,22.80
2023-01-23T05:23:54.703Z,23.40
2023-01-23T05:26:22.263Z,22.65
2023-01-23T05:28:49.656Z,22.05
2023-01-23T05:31:16.784Z,21.38
2023-01-23T05:33:58.606Z,21.33
2023-01-23T05:36:25.793Z,21.00
2023-01-23T05:38:57.715Z,21.77
2023-01-23T05:41:28.445Z,22.07
2023-01-23T05:44:35.260Z,23.70
2023-01-23T05:47:11.818Z,20.98
2023-01-23T05:49:39.111Z,22.98
2023-01-23T05:52:06.439Z,21.92
2023-01-23T05:54:34.409Z,22.90
2023-01-23T05:57:01.479Z,20.92
2023-01-23T05:59:47.393Z,20.38
2023-01-23T06:02:35.218Z,21.10
2023-01-23T06:05:08.989Z,21.70
2023-01-23T06:07:58.297Z,21.35
2023-01-23T06:10:26.058Z,21.35
2023-01-23T06:12:53.096Z,19.70
2023-01-23T06:15:25.377Z,20.05
2023-01-23T06:17:57.281Z,19.35
2023-01-23T06:20:26.027Z,20.33
2023-01-23T06:22:53.025Z,20.70
2023-01-23T06:25:22.089Z,19.42
2023-01-23T06:27:49.895Z,18.35
2023-01-23T06:30:17.925Z,17.98
2023-01-23T06:32:46.965Z,18.70
2023-01-23T06:35:18.480Z,18.02
2023-01-23T06:37:49.461Z,17.65
2023-01-23T06:40:22.759Z,17.92
2023-01-23T06:43:02.332Z,18.33
2023-01-23T06:45:29.925Z,17.75
2023-01-23T06:47:58.074Z,16.05
2023-01-23T06:50:27.734Z,18.20
2023-01-23T06:52:54.904Z,17.48
2023-01-23T06:55:23.063Z,18.75
2023-01-23T06:57:50.200Z,17.15
2023-01-23T07:00:19.513Z,17.40
2023-01-23T07:02:47.113Z,15.77
2023-01-23T07:05:14.814Z,17.25
2023-01-23T07:07:45.898Z,16.33
2023-01-23T07:10:13.558Z,17.80
2023-01-23T07:12:40.642Z,17.50
2023-01-23T07:15:09.620Z,17.95
2023-01-23T07:17:40.485Z,17.38
2023-01-23T07:20:08.996Z,16.95
2023-01-23T07:22:41.319Z,17.55
2023-01-23T07:25:08.996Z,16.83
2023-01-23T07:27:36.135Z,16.42
2023-01-23T07:30:06.465Z,17.35
2023-01-23T07:32:33.515Z,17.80
2023-01-23T07:35:01.103Z,17.60
2023-01-23T07:37:29.339Z,17.50
2023-01-23T07:39:57.544Z,18.52
2023-01-23T07:42:24.658Z,18.25
2023-01-23T07:44:53.754Z,17.75
2023-01-23T07:47:23.702Z,18.23
2023-01-23T07:49:50.944Z,18.00
2023-01-23T07:52:18.329Z,18.80
2023-01-23T07:54:47.662Z,17.88
2023-01-23T07:57:17.504Z,17.75
2023-01-23T07:59:44.547Z,16.75
2023-01-23T08:02:11.854Z,17.48
2023-01-23T08:04:39.038Z,17.38
2023-01-23T08:07:06.689Z,16.83
2023-01-23T08:09:33.766Z,16.80
2023-01-23T08:12:01.105Z,18.20
2023-01-23T08:14:30.415Z,16.55
2023-01-23T08:17:01.666Z,18.38
2023-01-23T08:19:28.827Z,17.35
2023-01-23T08:21:59.280Z,18.75
2023-01-23T08:24:28.481Z,18.17
2023-01-23T08:27:00.322Z,17.08
2023-01-23T08:29:28.126Z,18.30
2023-01-23T08:31:55.602Z,18.25
2023-01-23T08:34:24.140Z,18.20
2023-01-23T08:36:51.692Z,18.42
2023-01-23T08:39:21.231Z,18.25
2023-01-23T08:41:48.602Z,31.00
2023-01-23T08:44:15.635Z,22.27
2023-01-23T08:46:45.994Z,18.73
2023-01-23T08:49:13.485Z,18.52
2023-01-23T08:51:43.067Z,18.75
2023-01-23T08:54:10.262Z,18.58
2023-01-23T08:56:37.668Z,17.73
2023-01-23T08:59:04.750Z,18.60
2023-01-23T09:01:32.124Z,18.48
2023-01-23T09:03:59.187Z,20.13
2023-01-23T09:06:28.956Z,18.30
2023-01-23T09:08:56.091Z,19.00
2023-01-23T09:11:23.956Z,18.83
2023-01-23T09:13:53.798Z,19.67
2023-01-23T09:16:21.867Z,19.25
2023-01-23T09:18:49.012Z,18.70
2023-01-23T09:21:17.751Z,18.60
2023-01-23T09:23:45.725Z,18.88
2023-01-23T09:26:18.150Z,19.25
2023-01-23T09:28:46.779Z,18.48
2023-01-23T09:31:14.516Z,19.83
2023-01-23T09:33:42.392Z,19.58
2023-01-23T09:36:10.199Z,18.75
2023-01-23T09:38:37.205Z,18.98
2023-01-23T09:41:19.466Z,18.98
2023-01-23T09:43:59.320Z,18.73
2023-01-23T09:46:33.193Z,17.67
2023-01-23T09:49:11.183Z,18.17
2023-01-23T09:51:38.579Z,19.35
2023-01-23T09:54:13.881Z,17.88
2023-01-23T09:59:10.677Z,16.27
2023-01-23T10:01:38.278Z,17.65
2023-01-23T10:04:05.998Z,17.52
2023-01-23T10:07:06.670Z,19.17
2023-01-23T10:10:18.790Z,18.52
2023-01-23T10:13:03.490Z,17.13
2023-01-23T10:15:30.521Z,15.63
2023-01-23T10:18:26.704Z,15.93
2023-01-23T10:21:02.479Z,16.10
2023-01-23T10:23:54.279Z,16.48
2023-01-23T10:26:31.622Z,15.38
2023-01-23T10:29:14.145Z,16.35
2023-01-23T10:31:53.988Z,15.90
2023-01-23T10:34:34.481Z,16.33
2023-01-23T10:37:17.076Z,14.85
2023-01-23T10:40:10.430Z,15.43
2023-01-23T10:42:37.397Z,14.80
2023-01-23T10:45:06.411Z,15.52
2023-01-23T10:47:44.049Z,14.90
2023-01-23T10:50:11.786Z,14.45
2023-01-23T10:52:42.398Z,13.65
2023-01-23T10:55:21.405Z,13.82
2023-01-23T10:57:53.252Z,13.68
2023-01-23T11:00:34.095Z,13.40
2023-01-23T11:03:20.122Z,13.05
2023-01-23T11:05:53.562Z,13.35
2023-01-23T11:08:31.273Z,12.90
2023-01-23T11:11:16.109Z,12.32
2023-01-23T11:13:48.686Z,12.88
2023-01-23T11:16:19.811Z,13.32
2023-01-23T11:19:09.100Z,12.45
2023-01-23T11:21:57.590Z,13.45
2023-01-23T11:24:40.373Z,14.27
2023-01-23T11:27:20.366Z,12.10
2023-01-23T11:30:09.300Z,12.70
2023-01-23T11:32:58.685Z,13.15
2023-01-23T11:36:12.066Z,12.27
2023-01-23T11:38:52.519Z,12.98
2023-01-23T11:41:27.003Z,12.80
2023-01-23T11:43:54.385Z,13.20
2023-01-23T11:46:27.574Z,12.48
2023-01-23T11:49:39.722Z,12.75
2023-01-23T11:52:17.996Z,12.77
2023-01-23T11:55:04.087Z,13.00
2023-01-23T11:57:54.370Z,13.20
2023-01-23T12:00:54.666Z,12.43
2023-01-23T12:03:40.392Z,12.57
2023-01-23T12:06:20.448Z,13.10
2023-01-23T12:08:53.731Z,13.18
2023-01-23T12:14:00.900Z,12.68
2023-01-23T12:16:39.875Z,13.02
2023-01-23T12:19:16.153Z,13.32
2023-01-23T12:21:57.844Z,13.93
2023-01-23T12:24:54.171Z,12.38
2023-01-23T12:27:34.428Z,13.07
2023-01-23T12:30:25.383Z,12.70
2023-01-23T12:33:01.241Z,13.40
2023-01-23T12:35:50.795Z,13.40
2023-01-23T12:38:29.472Z,12.70
2023-01-23T12:41:06.541Z,11.93
2023-01-23T12:43:55.079Z,12.75
2023-01-23T12:46:39.681Z,13.20
2023-01-23T12:49:25.421Z,12.43
2023-01-23T12:52:17.900Z,12.53
2023-01-23T12:54:53.670Z,13.13
2023-01-23T12:57:52.827Z,12.70
2023-01-23T13:00:53.533Z,13.48
2023-01-23T13:03:44.958Z,13.30
2023-01-23T13:06:34.937Z,11.90
2023-01-23T13:09:29.176Z,13.48
2023-01-23T13:12:08.834Z,12.85
2023-01-23T13:15:06.499Z,13.68
2023-01-23T13:17:49.391Z,11.38
2023-01-23T13:20:38.134Z,12.80
2023-01-23T13:23:26.438Z,12.90
2023-01-23T13:26:12.436Z,9.98
2023-01-23T13:31:26.863Z,11.75
2023-01-23T13:34:06.654Z,12.55
2023-01-23T13:36:37.858Z,12.13
2023-01-23T13:39:22.052Z,11.93
2023-01-23T13:42:12.805Z,12.88
2023-01-23T13:45:21.493Z,12.43
2023-01-23T14:25:42.655Z,11.00
2023-01-23T14:28:16.797Z,11.40
2023-01-23T14:30:55.592Z,11.45
2023-01-23T14:33:23.413Z,11.80
2023-01-23T14:35:53.377Z,10.95
2023-01-23T14:38:29.259Z,11.23
2023-01-23T14:40:58.946Z,11.27
2023-01-23T14:43:29.180Z,11.15
2023-01-23T14:46:14.013Z,11.05
2023-01-23T14:48:47.356Z,10.85
2023-01-23T14:51:26.169Z,11.63
2023-01-23T14:54:01.614Z,13.45
2023-01-23T14:56:36.864Z,12.05
2023-01-23T14:59:07.262Z,8.23
2023-01-23T15:01:36.007Z,11.63
2023-01-23T15:04:06.425Z,12.35
2023-01-23T15:06:35.910Z,12.15
2023-01-23T15:09:09.103Z,13.13
2023-01-23T15:11:39.520Z,13.25
2023-01-23T15:14:22.449Z,11.82
2023-01-23T15:16:51.883Z,12.52
2023-01-23T15:19:27.028Z,12.40
2023-01-23T15:22:28.019Z,12.90
2023-01-23T15:24:56.068Z,11.23
2023-01-23T15:27:33.978Z,11.57
2023-01-23T15:30:29.095Z,12.27
2023-01-23T15:32:58.070Z,11.20
2023-01-23T15:35:25.720Z,11.88
2023-01-23T15:37:59.665Z,12.35
2023-01-23T15:40:28.160Z,12.82
2023-01-23T15:43:18.831Z,11.60
2023-01-23T15:45:47.055Z,12.15
2023-01-23T15:48:17.040Z,13.45
2023-01-23T15:50:44.106Z,13.18
2023-01-23T15:53:13.727Z,11.05
2023-01-23T15:55:44.046Z,11.27
2023-01-23T15:58:17.213Z,11.55
2023-01-23T16:00:44.476Z,10.98
2023-01-23T16:03:14.815Z,12.20
2023-01-23T16:05:42.206Z,11.52
2023-01-23T16:08:20.907Z,11.52
2023-01-23T16:10:50.531Z,11.65
2023-01-23T16:13:17.968Z,10.95
2023-01-23T16:15:45.342Z,11.23
2023-01-23T16:18:15.072Z,11.05
2023-01-23T16:20:45.359Z,10.85
2023-01-23T16:23:31.234Z,10.63
2023-01-23T16:26:03.009Z,11.80
2023-01-23T16:28:32.510Z,10.88
2023-01-23T16:30:59.667Z,11.30
2023-01-23T16:33:31.937Z,11.77
2023-01-23T16:35:59.134Z,11.82
2023-01-23T16:38:29.041Z,12.02
2023-01-23T16:40:59.646Z,10.88
2023-01-23T16:43:27.579Z,11.57
2023-01-23T16:45:56.928Z,12.38
2023-01-23T16:48:28.510Z,12.23
2023-01-23T16:51:05.164Z,12.10
2023-01-23T16:53:41.024Z,11.50
2023-01-23T16:56:21.836Z,12.80
2023-01-23T16:58:50.545Z,13.10
2023-01-23T17:01:23.686Z,12.52
2023-01-23T17:04:03.942Z,11.65
2023-01-23T17:06:33.260Z,12.77
2023-01-23T17:09:01.618Z,11.73
2023-01-23T17:12:12.666Z,12.25
2023-01-23T17:14:42.842Z,10.80
2023-01-23T17:17:17.357Z,12.57
2023-01-23T17:19:47.328Z,11.80
2023-01-23T17:22:27.896Z,13.57
2023-01-23T17:24:55.839Z,13.25
2023-01-23T17:27:23.137Z,12.15
2023-01-23T17:29:50.993Z,12.43
2023-01-23T17:32:27.373Z,12.35
2023-01-23T17:34:55.616Z,13.90
2023-01-23T17:37:23.711Z,14.35
2023-01-23T17:39:52.029Z,14.25
2023-01-23T17:42:19.672Z,14.00
2023-01-23T17:44:48.058Z,14.27
2023-01-23T17:47:17.090Z,15.35
2023-01-23T17:49:51.708Z,13.70
2023-01-23T17:52:22.390Z,14.85
2023-01-23T17:54:50.220Z,14.10
2023-01-23T17:57:17.682Z,13.52
2023-01-23T17:59:47.768Z,14.85
2023-01-23T18:02:30.699Z,14.95
2023-01-23T18:04:59.834Z,14.68
2023-01-23T18:07:27.863Z,14.98
2023-01-23T18:09:56.585Z,15.00
2023-01-23T18:13:03.464Z,16.98
